createdAt,value
2023-05-12T00:00:47.118Z,5.88
2023-05-12T00:01:49.326Z,7.68
2023-05-12T00:02:51.824Z,9.93
2023-05-12T00:03:54.451Z,7.70
2023-05-12T00:04:56.983Z,7.10
2023-05-12T00:06:03.545Z,3.72
2023-05-12T00:07:06.976Z,5.15
2023-05-12T00:08:09.236Z,5.90
2023-05-12T00:09:11.431Z,5.10
2023-05-12T00:10:14.526Z,8.48
2023-05-12T00:11:17.049Z,7.03
2023-05-12T00:12:19.281Z,5.38
2023-05-12T00:13:23.603Z,8.00
2023-05-12T00:14:25.881Z,7.30
2023-05-12T00:15:28.076Z,5.82
2023-05-12T00:16:30.348Z,5.60
2023-05-12T00:17:32.564Z,5.53
2023-05-12T00:18:34.915Z,7.82
2023-05-12T00:19:37.277Z,7.15
2023-05-12T00:20:39.499Z,6.95
2023-05-12T00:21:43.179Z,7.95
2023-05-12T00:22:45.392Z,4.32
2023-05-12T00:23:47.570Z,3.85
2023-05-12T00:24:49.686Z,5.10
2023-05-12T00:25:51.815Z,5.95
2023-05-12T00:26:54.240Z,4.65
2023-05-12T00:27:56.576Z,6.03
2023-05-12T00:28:58.891Z,4.82
2023-05-12T00:30:01.115Z,6.97
2023-05-12T00:31:03.953Z,5.57
2023-05-12T00:32:06.974Z,5.65
2023-05-12T00:33:09.288Z,6.28
2023-05-12T00:34:11.623Z,5.38
2023-05-12T00:35:13.846Z,7.10
2023-05-12T00:36:16.051Z,5.75
2023-05-12T00:37:18.323Z,4.90
2023-05-12T00:38:20.478Z,8.48
2023-05-12T00:39:22.693Z,6.85
2023-05-12T00:40:24.871Z,5.07
2023-05-12T00:41:27.164Z,6.05
2023-05-12T00:42:29.754Z,5.55
2023-05-12T00:43:32.154Z,6.60
2023-05-12T00:44:34.423Z,6.28
2023-05-12T00:45:36.757Z,5.95
2023-05-12T00:46:39.150Z,8.45
2023-05-12T00:47:41.626Z,7.47
2023-05-12T00:48:45.447Z,9.55
2023-05-12T00:49:47.604Z,8.23
2023-05-12T00:50:49.778Z,6.20
2023-05-12T00:51:54.067Z,8.90
2023-05-12T00:52:57.384Z,5.70
2023-05-12T00:53:59.587Z,7.00
2023-05-12T00:55:03.321Z,6.47
2023-05-12T00:56:05.797Z,6.05
2023-05-12T00:57:08.272Z,6.93
2023-05-12T00:58:10.781Z,7.03
2023-05-12T00:59:13.098Z,8.00
2023-05-12T01:00:18.107Z,7.88
2023-05-12T01:01:22.770Z,8.48
2023-05-12T01:02:28.842Z,6.75
2023-05-12T01:03:33.350Z,11.73
2023-05-12T01:04:39.660Z,6.80
2023-05-12T01:05:49.966Z,6.82
2023-05-12T01:07:05.133Z,6.20
2023-05-12T01:08:09.247Z,8.18
2023-05-12T01:09:11.486Z,9.13
2023-05-12T01:10:21.186Z,9.63
2023-05-12T01:11:24.397Z,6.95
2023-05-12T01:12:27.997Z,10.02
2023-05-12T01:13:30.264Z,5.82
2023-05-12T01:14:34.064Z,7.70
2023-05-12T01:15:39.174Z,6.00
2023-05-12T01:16:47.179Z,8.25
2023-05-12T01:17:56.447Z,9.02
2023-05-12T01:19:00.366Z,7.10
2023-05-12T01:20:06.982Z,5.82
2023-05-12T01:21:10.261Z,8.07
2023-05-12T01:22:12.920Z,11.25
2023-05-12T01:23:18.963Z,7.32
2023-05-12T01:24:27.066Z,6.38
2023-05-12T01:25:33.044Z,6.28
2023-05-12T01:26:37.078Z,7.88
2023-05-12T01:27:40.588Z,13.77
2023-05-12T01:28:45.333Z,8.98
2023-05-12T01:29:49.029Z,8.20
2023-05-12T01:30:53.289Z,7.53
2023-05-12T01:31:56.752Z,5.68
2023-05-12T01:32:59.150Z,8.88
2023-05-12T01:34:01.540Z,7.57
2023-05-12T01:35:05.004Z,11.75
2023-05-12T01:36:08.742Z,8.68
2023-05-12T01:37:12.573Z,6.88
2023-05-12T01:38:15.367Z,8.40
2023-05-12T01:39:18.001Z,7.97
2023-05-12T01:40:20.412Z,7.60
2023-05-12T01:41:23.348Z,9.80
2023-05-12T01:42:25.725Z,6.65
2023-05-12T01:43:27.886Z,10.07
2023-05-12T01:44:30.251Z,7.15
2023-05-12T01:45:33.280Z,6.78
2023-05-12T01:46:36.558Z,11.27
2023-05-12T01:47:38.997Z,8.65
2023-05-12T01:48:44.021Z,12.38
2023-05-12T01:49:46.369Z,10.95
2023-05-12T01:50:51.028Z,6.63
2023-05-12T01:51:56.346Z,11.75
2023-05-12T01:53:04.601Z,11.32
2023-05-12T01:54:08.115Z,9.98
2023-05-12T01:55:13.481Z,10.18
2023-05-12T01:56:31.484Z,9.25
2023-05-12T01:57:33.804Z,10.63
2023-05-12T01:58:37.373Z,10.05
2023-05-12T01:59:40.168Z,7.45
2023-05-12T02:02:09.257Z,14.68
2023-05-12T02:03:11.954Z,12.90
2023-05-12T02:04:14.495Z,15.45
2023-05-12T02:05:17.399Z,22.92
2023-05-12T02:06:22.266Z,13.32
2023-05-12T02:07:24.430Z,15.35
2023-05-12T02:08:26.720Z,14.80
2023-05-12T02:09:29.122Z,17.40
2023-05-12T02:10:35.727Z,18.05
2023-05-12T02:11:38.120Z,13.18
2023-05-12T02:12:40.414Z,11.55
2023-05-12T02:13:46.073Z,14.82
2023-05-12T02:14:48.370Z,13.10
2023-05-12T02:15:51.298Z,9.00
2023-05-12T02:16:55.386Z,11.23
2023-05-12T02:17:59.646Z,8.85
2023-05-12T02:19:02.559Z,11.13
2023-05-12T02:20:08.045Z,10.18
2023-05-12T02:21:10.233Z,8.65
2023-05-12T02:22:12.389Z,11.55
2023-05-12T02:23:14.798Z,12.25
2023-05-12T02:24:17.234Z,10.32
2023-05-12T02:25:20.158Z,9.55
2023-05-12T02:26:22.840Z,10.77
2023-05-12T02:27:25.074Z,13.32
2023-05-12T02:28:27.676Z,8.23
2023-05-12T02:29:30.245Z,10.38
2023-05-12T02:30:32.537Z,13.48
2023-05-12T02:31:34.733Z,10.00
2023-05-12T02:32:37.891Z,13.32
2023-05-12T02:33:41.995Z,14.27
2023-05-12T02:34:44.228Z,11.77
2023-05-12T02:35:46.660Z,11.70
2023-05-12T02:36:48.852Z,10.50
2023-05-12T02:37:52.823Z,10.00
2023-05-12T02:38:55.201Z,10.63
2023-05-12T02:39:57.452Z,14.55
2023-05-12T02:41:00.457Z,11.65
2023-05-12T02:42:02.697Z,11.60
2023-05-12T02:43:05.010Z,9.52
2023-05-12T02:44:07.423Z,9.82
2023-05-12T02:45:10.684Z,10.18
2023-05-12T02:46:12.891Z,12.85
2023-05-12T02:47:15.183Z,10.70
2023-05-12T02:48:17.445Z,8.85
2023-05-12T02:49:19.608Z,10.50
2023-05-12T02:50:22.481Z,11.65
2023-05-12T02:51:25.100Z,12.30
2023-05-12T02:52:27.392Z,12.20
2023-05-12T02:53:29.594Z,15.05
2023-05-12T02:54:31.944Z,10.38
2023-05-12T02:55:34.185Z,11.95
2023-05-12T02:56:36.574Z,13.18
2023-05-12T02:57:38.987Z,12.55
2023-05-12T02:58:41.751Z,10.75
2023-05-12T02:59:44.171Z,8.23
2023-05-12T03:00:48.654Z,12.55
2023-05-12T03:01:54.500Z,11.32
2023-05-12T03:02:56.847Z,12.82
2023-05-12T03:03:59.110Z,9.40
2023-05-12T03:05:01.776Z,11.88
2023-05-12T03:06:04.678Z,11.65
2023-05-12T03:07:07.164Z,12.82
2023-05-12T03:08:10.161Z,11.90
2023-05-12T03:09:12.472Z,10.85
2023-05-12T03:10:14.715Z,13.68
2023-05-12T03:11:17.074Z,13.07
2023-05-12T03:12:19.592Z,15.95
2023-05-12T03:13:22.180Z,12.10
2023-05-12T03:14:26.181Z,14.25
2023-05-12T03:15:28.352Z,13.43
2023-05-12T03:16:30.961Z,10.48
2023-05-12T03:17:33.308Z,9.93
2023-05-12T03:18:35.551Z,10.48
2023-05-12T03:19:37.938Z,10.50
2023-05-12T03:20:40.181Z,11.93
2023-05-12T03:21:42.699Z,15.05
2023-05-12T03:22:45.172Z,10.63
2023-05-12T03:23:47.653Z,12.65
2023-05-12T03:24:49.789Z,9.70
2023-05-12T03:25:51.928Z,12.25
2023-05-12T03:26:54.939Z,11.07
2023-05-12T03:27:57.366Z,9.57
2023-05-12T03:28:59.704Z,9.80
2023-05-12T03:30:04.821Z,11.40
2023-05-12T03:31:10.116Z,9.93
2023-05-12T03:32:12.595Z,10.75
2023-05-12T03:33:14.982Z,9.73
2023-05-12T03:34:17.180Z,9.25
2023-05-12T03:35:19.747Z,9.63
2023-05-12T03:36:21.943Z,10.48
2023-05-12T03:37:24.128Z,10.63
2023-05-12T03:38:26.585Z,9.15
2023-05-12T03:39:28.746Z,14.60
2023-05-12T03:40:30.964Z,10.25
2023-05-12T03:41:33.229Z,12.05
2023-05-12T03:42:35.658Z,13.35
2023-05-12T03:43:38.095Z,12.40
2023-05-12T03:44:40.985Z,10.18
2023-05-12T03:45:43.224Z,10.55
2023-05-12T03:46:45.687Z,10.23
2023-05-12T03:47:49.586Z,9.85
2023-05-12T03:48:52.376Z,11.45
2023-05-12T03:49:54.598Z,9.32
2023-05-12T03:50:56.921Z,11.35
2023-05-12T03:51:59.221Z,12.98
2023-05-12T03:53:01.472Z,9.10
2023-05-12T03:54:04.049Z,9.20
2023-05-12T03:55:06.905Z,14.90
2023-05-12T03:56:09.208Z,13.05
2023-05-12T03:57:12.515Z,12.55
2023-05-12T03:58:15.290Z,13.73
2023-05-12T03:59:17.506Z,12.38
2023-05-12T04:00:20.517Z,11.50
2023-05-12T04:01:22.946Z,11.00
2023-05-12T04:02:25.410Z,11.75
2023-05-12T04:03:28.606Z,12.85
2023-05-12T04:04:30.888Z,11.32
2023-05-12T04:05:35.072Z,15.23
2023-05-12T04:06:37.251Z,9.43
2023-05-12T04:07:39.480Z,10.07
2023-05-12T04:08:42.252Z,12.30
2023-05-12T04:09:44.524Z,10.45
2023-05-12T04:10:46.794Z,15.07
2023-05-12T04:11:49.142Z,13.68
2023-05-12T04:12:52.357Z,12.38
2023-05-12T04:13:55.114Z,15.52
2023-05-12T04:14:57.408Z,15.02
2023-05-12T04:16:00.681Z,11.18
2023-05-12T04:17:02.994Z,12.35
2023-05-12T04:18:05.247Z,12.45
2023-05-12T04:19:07.580Z,8.88
2023-05-12T04:20:11.244Z,10.18
2023-05-12T04:21:14.330Z,9.40
2023-05-12T04:22:16.611Z,9.23
2023-05-12T04:23:18.937Z,11.40
2023-05-12T04:24:21.797Z,10.60
2023-05-12T04:25:24.071Z,18.65
2023-05-12T04:26:26.964Z,17.17
2023-05-12T04:27:29.547Z,16.98
2023-05-12T04:28:32.049Z,11.95
2023-05-12T04:29:35.047Z,13.50
2023-05-12T04:30:41.134Z,11.10
2023-05-12T04:31:43.381Z,9.32
2023-05-12T04:32:45.589Z,10.55
2023-05-12T04:33:48.449Z,13.18
2023-05-12T04:34:51.527Z,12.52
2023-05-12T04:35:57.337Z,11.20
2023-05-12T04:36:59.694Z,11.80
2023-05-12T04:38:02.248Z,12.82
2023-05-12T04:39:05.261Z,9.65
2023-05-12T04:40:08.936Z,9.20
2023-05-12T04:41:11.532Z,14.57
2023-05-12T04:42:14.019Z,12.88
2023-05-12T04:44:22.242Z,10.85
2023-05-12T04:45:25.663Z,10.13
2023-05-12T04:46:28.867Z,10.45
2023-05-12T04:47:31.197Z,11.70
2023-05-12T04:48:33.416Z,10.68
2023-05-12T04:49:35.749Z,10.40
2023-05-12T04:50:37.997Z,11.15
2023-05-12T04:51:42.321Z,15.70
2023-05-12T04:52:44.732Z,20.58
2023-05-12T04:53:47.718Z,14.40
2023-05-12T04:54:50.005Z,14.68
2023-05-12T04:55:52.566Z,14.73
2023-05-12T04:56:55.210Z,15.23
2023-05-12T04:57:57.770Z,14.02
2023-05-12T04:59:00.236Z,17.83
2023-05-12T05:00:05.661Z,14.30
2023-05-12T05:01:08.254Z,16.27
2023-05-12T05:02:14.279Z,17.35
2023-05-12T05:03:16.669Z,17.58
2023-05-12T05:04:19.430Z,17.98
2023-05-12T05:05:22.400Z,14.90
2023-05-12T05:06:24.807Z,18.13
2023-05-12T05:07:27.001Z,19.40
2023-05-12T05:08:29.234Z,18.80
2023-05-12T05:09:33.860Z,18.45
2023-05-12T05:10:37.211Z,18.13
2023-05-12T05:11:39.410Z,18.58
2023-05-12T05:12:42.016Z,23.70
2023-05-12T05:13:44.236Z,21.48
2023-05-12T05:14:46.435Z,24.95
2023-05-12T05:15:52.263Z,22.10
2023-05-12T05:16:55.246Z,21.42
2023-05-12T05:17:59.397Z,23.20
2023-05-12T05:19:06.507Z,23.65
2023-05-12T05:20:12.676Z,26.75
2023-05-12T05:21:17.427Z,24.33
2023-05-12T05:22:19.968Z,24.90
2023-05-12T05:23:22.152Z,23.30
2023-05-12T05:24:25.486Z,24.92
2023-05-12T05:25:29.378Z,29.15
2023-05-12T05:26:31.805Z,22.00
2023-05-12T05:27:33.994Z,24.88
2023-05-12T05:28:37.311Z,24.33
2023-05-12T05:29:40.181Z,23.73
2023-05-12T05:30:42.521Z,24.15
2023-05-12T05:31:46.356Z,25.42
2023-05-12T05:32:49.721Z,24.25
2023-05-12T05:33:52.002Z,26.13
2023-05-12T05:34:54.222Z,22.58
2023-05-12T05:35:56.500Z,24.75
2023-05-12T05:36:59.086Z,27.42
2023-05-12T05:38:01.514Z,24.85
2023-05-12T05:39:04.811Z,23.58
2023-05-12T05:40:07.864Z,22.85
2023-05-12T05:41:10.146Z,24.73
2023-05-12T05:42:12.335Z,20.73
2023-05-12T05:43:14.637Z,26.60
2023-05-12T05:44:16.935Z,26.23
2023-05-12T05:45:19.284Z,19.00
2023-05-12T05:46:21.629Z,20.45
2023-05-12T05:47:24.146Z,23.13
2023-05-12T05:48:26.604Z,19.98
2023-05-12T05:49:30.017Z,20.80
2023-05-12T05:50:34.230Z,23.52
2023-05-12T05:51:36.418Z,20.55
2023-05-12T05:52:39.425Z,21.83
2023-05-12T05:53:41.651Z,20.50
2023-05-12T05:54:45.172Z,20.80
2023-05-12T05:55:48.737Z,24.42
2023-05-12T05:56:51.582Z,15.35
2023-05-12T05:57:53.933Z,16.58
2023-05-12T05:58:56.956Z,19.05
2023-05-12T05:59:59.174Z,18.98
2023-05-12T06:01:02.347Z,19.67
2023-05-12T06:02:04.662Z,20.17
2023-05-12T06:03:07.083Z,20.23
2023-05-12T06:04:09.354Z,20.55
2023-05-12T06:05:14.249Z,21.42
2023-05-12T06:06:16.698Z,20.70
2023-05-12T06:07:21.509Z,20.92
2023-05-12T06:08:24.635Z,18.98
2023-05-12T06:09:26.869Z,21.23
2023-05-12T06:10:29.935Z,19.30
2023-05-12T06:11:32.074Z,18.02
2023-05-12T06:12:34.818Z,20.13
2023-05-12T06:13:36.969Z,20.98
2023-05-12T06:14:39.150Z,19.08
2023-05-12T06:15:41.481Z,22.73
2023-05-12T06:16:43.926Z,18.98
2023-05-12T06:17:46.468Z,21.13
2023-05-12T06:18:48.669Z,19.20
2023-05-12T06:19:51.029Z,20.92
2023-05-12T06:20:53.517Z,19.13
2023-05-12T06:21:55.780Z,18.40
2023-05-12T06:22:58.078Z,21.10
2023-05-12T06:24:00.349Z,18.90
2023-05-12T06:25:03.839Z,17.65
2023-05-12T06:26:07.793Z,15.52
2023-05-12T06:27:10.085Z,17.10
2023-05-12T06:28:12.280Z,18.38
2023-05-12T06:29:15.185Z,21.48
2023-05-12T06:30:17.460Z,22.05
2023-05-12T06:31:19.855Z,18.83
2023-05-12T06:32:23.120Z,18.85
2023-05-12T06:33:25.372Z,21.15
2023-05-12T06:34:27.698Z,19.70
2023-05-12T06:35:29.862Z,18.48
2023-05-12T06:36:32.063Z,16.58
2023-05-12T06:37:34.318Z,17.33
2023-05-12T06:38:36.581Z,14.48
2023-05-12T06:39:38.967Z,18.05
2023-05-12T06:40:41.389Z,15.50
2023-05-12T06:41:43.659Z,18.90
2023-05-12T06:42:55.192Z,19.07
2023-05-12T06:43:57.387Z,17.35
2023-05-12T06:45:03.900Z,17.30
2023-05-12T06:46:08.531Z,17.08
2023-05-12T06:47:11.065Z,17.00
2023-05-12T06:48:13.291Z,19.70
2023-05-12T06:49:15.637Z,19.80
2023-05-12T06:50:17.874Z,16.92
2023-05-12T06:51:20.279Z,14.60
2023-05-12T06:52:23.948Z,16.35
2023-05-12T06:53:26.401Z,16.27
2023-05-12T06:54:29.248Z,18.70
2023-05-12T06:55:34.177Z,15.63
2023-05-12T06:56:36.468Z,16.77
2023-05-12T06:57:38.753Z,19.92
2023-05-12T06:58:41.044Z,15.68
2023-05-12T06:59:43.262Z,14.95
2023-05-12T07:00:45.533Z,14.20
2023-05-12T07:01:47.809Z,15.65
2023-05-12T07:02:50.298Z,15.13
2023-05-12T07:03:52.555Z,14.38
2023-05-12T07:04:54.812Z,14.52
2023-05-12T07:05:57.100Z,17.85
2023-05-12T07:06:59.448Z,13.68
2023-05-12T07:08:01.791Z,14.65
2023-05-12T07:09:04.381Z,13.90
2023-05-12T07:10:07.510Z,13.75
2023-05-12T07:11:09.854Z,12.70
2023-05-12T07:12:12.278Z,14.52
2023-05-12T07:13:14.483Z,13.27
2023-05-12T07:14:17.587Z,15.32
2023-05-12T07:15:20.048Z,13.18
2023-05-12T07:16:22.547Z,13.23
2023-05-12T07:17:24.851Z,12.52
2023-05-12T07:18:27.092Z,12.20
2023-05-12T07:19:29.378Z,15.80
2023-05-12T07:20:31.610Z,14.98
2023-05-12T07:21:33.814Z,13.60
2023-05-12T07:22:38.787Z,14.50
2023-05-12T07:23:41.350Z,13.90
2023-05-12T07:24:43.619Z,13.18
2023-05-12T07:25:46.073Z,13.30
2023-05-12T07:26:48.330Z,13.30
2023-05-12T07:27:50.524Z,12.77
2023-05-12T07:28:52.894Z,11.98
2023-05-12T07:29:55.114Z,13.88
2023-05-12T07:30:57.582Z,13.88
2023-05-12T07:32:00.215Z,14.40
2023-05-12T07:33:02.609Z,15.15
2023-05-12T07:34:04.918Z,13.75
2023-05-12T07:35:07.580Z,13.68
2023-05-12T07:36:10.062Z,16.13
2023-05-12T07:37:12.210Z,13.57
2023-05-12T07:38:15.246Z,15.93
2023-05-12T07:39:23.270Z,13.68
2023-05-12T07:40:25.879Z,14.15
2023-05-12T07:41:28.169Z,14.05
2023-05-12T07:42:30.765Z,13.07
2023-05-12T07:43:33.211Z,13.38
2023-05-12T07:44:36.366Z,11.55
2023-05-12T07:45:38.799Z,10.98
2023-05-12T07:46:41.224Z,10.27
2023-05-12T07:47:43.718Z,10.95
2023-05-12T07:48:46.146Z,10.20
2023-05-12T07:49:48.412Z,10.27
2023-05-12T07:50:50.662Z,9.25
2023-05-12T07:51:52.944Z,9.60
2023-05-12T07:52:55.506Z,18.60
2023-05-12T07:53:58.101Z,9.23
2023-05-12T07:55:00.400Z,10.52
2023-05-12T07:56:02.757Z,9.52
2023-05-12T07:57:05.195Z,10.77
2023-05-12T07:58:07.342Z,9.63
2023-05-12T07:59:10.694Z,11.35
2023-05-12T08:00:13.506Z,20.33
2023-05-12T08:01:15.920Z,11.98
2023-05-12T08:02:18.187Z,12.20
2023-05-12T08:03:20.804Z,17.33
2023-05-12T08:04:23.124Z,11.32
2023-05-12T08:05:25.449Z,15.95
2023-05-12T08:06:27.625Z,11.73
2023-05-12T08:07:30.143Z,11.52
2023-05-12T08:08:32.318Z,11.52
2023-05-12T08:09:34.597Z,11.52
2023-05-12T08:10:36.714Z,22.17
2023-05-12T08:11:38.965Z,26.00
2023-05-12T08:12:41.786Z,13.48
2023-05-12T08:13:44.037Z,12.52
2023-05-12T08:14:46.697Z,11.65
2023-05-12T08:15:52.040Z,10.68
2023-05-12T08:16:54.231Z,14.38
2023-05-12T08:17:56.629Z,14.32
2023-05-12T08:18:59.485Z,13.65
2023-05-12T08:20:04.340Z,9.50
2023-05-12T08:21:07.893Z,11.25
2023-05-12T08:22:10.180Z,30.40
2023-05-12T08:23:12.334Z,12.00
2023-05-12T08:24:14.725Z,12.63
2023-05-12T08:25:17.092Z,14.52
2023-05-12T08:26:19.345Z,13.63
2023-05-12T08:27:21.754Z,20.10
2023-05-12T08:28:23.985Z,11.15
2023-05-12T08:29:26.174Z,13.18
2023-05-12T08:30:28.596Z,12.50
2023-05-12T08:31:30.850Z,13.20
2023-05-12T08:32:33.311Z,10.05
2023-05-12T08:33:36.103Z,9.07
2023-05-12T08:34:38.475Z,9.00
2023-05-12T08:35:40.903Z,9.02
2023-05-12T08:36:43.160Z,7.38
2023-05-12T08:37:46.171Z,9.13
2023-05-12T08:38:48.960Z,8.00
2023-05-12T08:39:51.960Z,7.30
2023-05-12T08:41:06.146Z,7.53
2023-05-12T08:42:30.117Z,8.65
2023-05-12T08:43:52.320Z,9.77
2023-05-12T08:44:54.572Z,7.88
2023-05-12T08:46:00.113Z,7.50
2023-05-12T08:47:04.559Z,8.68
2023-05-12T08:48:10.710Z,7.90
2023-05-12T08:49:17.376Z,6.93
2023-05-12T08:50:22.582Z,5.13
2023-05-12T08:51:27.331Z,6.07
2023-05-12T08:52:32.008Z,5.32
2023-05-12T08:53:36.727Z,6.78
2023-05-12T08:54:52.279Z,7.25
2023-05-12T08:57:09.908Z,5.85
2023-05-12T08:57:28.112Z,6.15
2023-05-12T08:58:40.892Z,7.10
2023-05-12T08:59:44.662Z,9.43
2023-05-12T09:00:47.925Z,13.68
2023-05-12T09:01:51.287Z,9.77
2023-05-12T09:02:56.149Z,14.70
2023-05-12T09:03:58.521Z,7.63
2023-05-12T09:05:00.860Z,15.07
2023-05-12T09:06:05.412Z,22.52
2023-05-12T09:07:07.734Z,6.75
2023-05-12T09:08:10.841Z,7.90
2023-05-12T09:09:14.100Z,9.05
2023-05-12T09:10:32.809Z,8.05
2023-05-12T09:11:36.258Z,6.70
2023-05-12T09:12:39.030Z,8.02
2023-05-12T09:14:00.425Z,6.18
2023-05-12T09:15:07.688Z,6.40
2023-05-12T09:16:13.099Z,5.70
2023-05-12T09:17:15.303Z,7.60
2023-05-12T09:18:17.529Z,6.35
2023-05-12T09:19:21.288Z,6.30
2023-05-12T09:20:31.291Z,7.00
2023-05-12T09:21:34.605Z,7.20
2023-05-12T09:22:36.856Z,7.20
2023-05-12T09:23:39.138Z,6.95
2023-05-12T09:24:44.330Z,6.97
2023-05-12T09:25:47.071Z,6.97
2023-05-12T09:26:54.004Z,7.57
2023-05-12T09:27:59.430Z,5.38
2023-05-12T09:29:06.768Z,6.75
2023-05-12T09:30:09.202Z,6.25
2023-05-12T09:31:29.569Z,11.18
2023-05-12T09:32:33.706Z,7.30
2023-05-12T09:33:36.741Z,5.95
2023-05-12T09:34:41.086Z,4.57
2023-05-12T09:35:45.826Z,5.50
2023-05-12T09:37:01.343Z,7.68
2023-05-12T09:38:10.870Z,5.90
2023-05-12T09:39:13.416Z,9.40
2023-05-12T09:40:18.125Z,6.35
2023-05-12T09:41:23.983Z,5.80
2023-05-12T09:42:29.721Z,5.05
2023-05-12T09:43:32.016Z,7.15
2023-05-12T09:44:34.433Z,5.88
2023-05-12T09:45:38.785Z,5.38
2023-05-12T09:46:41.222Z,4.85
2023-05-12T09:47:44.454Z,5.80
2023-05-12T09:48:48.193Z,6.65
2023-05-12T09:49:52.188Z,4.65
2023-05-12T09:50:54.431Z,6.38
2023-05-12T09:51:58.611Z,4.90
2023-05-12T09:53:00.781Z,3.75
2023-05-12T09:54:05.073Z,4.07
2023-05-12T09:55:10.427Z,4.50
2023-05-12T09:56:14.127Z,3.92
2023-05-12T09:57:16.989Z,4.72
2023-05-12T09:58:20.622Z,5.95
2023-05-12T09:59:27.040Z,6.32
2023-05-12T10:00:41.237Z,6.38
2023-05-12T10:01:48.887Z,5.50
2023-05-12T10:02:51.535Z,5.75
2023-05-12T10:03:58.066Z,5.25
2023-05-12T10:05:06.023Z,4.93
2023-05-12T10:06:14.405Z,5.45
2023-05-12T10:07:18.385Z,5.18
2023-05-12T10:08:25.286Z,4.93
2023-05-12T10:09:34.105Z,6.10
2023-05-12T10:10:37.004Z,6.13
2023-05-12T10:11:40.987Z,5.68
2023-05-12T10:12:43.592Z,6.70
2023-05-12T10:13:47.095Z,6.05
2023-05-12T10:14:50.179Z,6.05
2023-05-12T10:15:55.962Z,5.80
2023-05-12T10:16:59.704Z,5.70
2023-05-12T10:18:02.149Z,6.75
2023-05-12T10:19:06.110Z,6.18
2023-05-12T10:20:10.205Z,6.25
2023-05-12T10:21:13.424Z,7.80
2023-05-12T10:22:19.515Z,7.68
2023-05-12T10:23:23.357Z,7.78
2023-05-12T10:24:29.698Z,7.63
2023-05-12T10:25:33.925Z,6.68
2023-05-12T10:26:37.614Z,6.00
2023-05-12T10:27:41.372Z,8.00
2023-05-12T10:28:45.078Z,7.15
2023-05-12T10:29:48.112Z,7.50
2023-05-12T10:30:51.608Z,7.00
2023-05-12T10:31:53.869Z,7.72
2023-05-12T10:32:57.471Z,7.80
2023-05-12T10:34:01.853Z,6.82
2023-05-12T10:35:09.176Z,6.93
2023-05-12T10:36:20.507Z,6.90
2023-05-12T10:37:23.666Z,6.50
2023-05-12T10:38:26.153Z,7.03
2023-05-12T10:39:32.720Z,4.97
2023-05-12T10:40:35.037Z,7.97
2023-05-12T10:41:37.321Z,3.38
2023-05-12T10:42:42.911Z,3.67
2023-05-12T10:43:49.422Z,4.32
2023-05-12T10:44:56.491Z,3.80
2023-05-12T10:46:18.940Z,4.50
2023-05-12T10:47:36.688Z,4.25
2023-05-12T10:48:58.014Z,4.57
2023-05-12T10:50:00.236Z,5.55
2023-05-12T10:51:10.115Z,6.15
2023-05-12T10:52:13.587Z,5.72
2023-05-12T10:53:16.138Z,5.65
2023-05-12T10:54:24.348Z,4.88
2023-05-12T10:55:35.009Z,5.47
2023-05-12T10:56:37.526Z,6.88
2023-05-12T10:57:53.322Z,7.00
2023-05-12T10:59:13.892Z,5.35
2023-05-12T11:00:21.901Z,4.93
2023-05-12T11:01:25.491Z,4.97
2023-05-12T11:02:34.550Z,6.35
2023-05-12T11:03:38.298Z,5.90
2023-05-12T11:04:53.465Z,6.50
2023-05-12T11:06:04.788Z,4.85
2023-05-12T11:07:09.755Z,5.77
2023-05-12T11:08:13.959Z,5.03
2023-05-12T11:09:17.707Z,5.43
2023-05-12T11:10:20.312Z,7.32
2023-05-12T11:11:25.111Z,4.55
2023-05-12T11:12:43.023Z,5.85
2023-05-12T11:13:45.479Z,6.45
2023-05-12T11:14:47.940Z,6.97
2023-05-12T11:15:50.698Z,4.68
2023-05-12T11:16:53.113Z,4.43
2023-05-12T11:17:55.362Z,5.22
2023-05-12T11:19:18.368Z,2.90
2023-05-12T11:21:33.250Z,4.15
2023-05-12T11:22:35.632Z,2.60
2023-05-12T11:23:37.808Z,2.00
2023-05-12T11:24:41.351Z,3.70
2023-05-12T11:25:44.678Z,3.35
2023-05-12T11:26:51.783Z,3.25
2023-05-12T11:27:54.261Z,3.35
2023-05-12T11:28:59.756Z,2.70
2023-05-12T11:30:04.155Z,6.00
2023-05-12T11:31:08.695Z,5.55
2023-05-12T11:32:12.525Z,5.15
2023-05-12T11:33:20.983Z,3.05
2023-05-12T11:34:24.605Z,2.95
2023-05-12T11:35:30.855Z,3.17
2023-05-12T11:36:40.268Z,3.65
2023-05-12T11:37:43.767Z,4.43
2023-05-12T11:38:50.830Z,5.32
2023-05-12T11:39:53.246Z,2.97
2023-05-12T11:40:55.670Z,5.72
2023-05-12T11:42:13.068Z,3.72
2023-05-12T11:43:21.297Z,4.38
2023-05-12T11:44:24.638Z,5.97
2023-05-12T11:45:29.221Z,3.35
2023-05-12T11:46:31.843Z,3.75
2023-05-12T11:47:34.521Z,3.17
2023-05-12T11:48:36.723Z,3.88
2023-05-12T11:49:47.919Z,3.65
2023-05-12T11:50:51.197Z,3.47
2023-05-12T11:52:02.572Z,3.47
2023-05-12T11:53:04.767Z,5.50
2023-05-12T11:54:07.000Z,5.03
2023-05-12T11:55:10.166Z,5.32
2023-05-12T11:56:19.282Z,3.67
2023-05-12T11:57:26.733Z,3.25
2023-05-12T11:58:30.558Z,3.90
2023-05-12T11:59:34.507Z,3.47
2023-05-12T12:00:36.818Z,3.33
2023-05-12T12:01:48.601Z,3.58
2023-05-12T12:02:51.028Z,3.38
2023-05-12T12:03:55.441Z,4.82
2023-05-12T12:04:58.065Z,3.40
2023-05-12T12:06:02.303Z,3.92
2023-05-12T12:07:05.743Z,3.72
2023-05-12T12:08:13.658Z,3.17
2023-05-12T12:09:15.929Z,3.95
2023-05-12T12:10:18.800Z,5.55
2023-05-12T12:11:22.672Z,4.18
2023-05-12T12:12:24.856Z,5.95
2023-05-12T12:13:27.116Z,3.40
2023-05-12T12:14:31.711Z,3.38
2023-05-12T12:15:33.942Z,4.30
2023-05-12T12:16:36.159Z,4.03
2023-05-12T12:17:39.683Z,2.30
2023-05-12T12:18:42.531Z,4.88
2023-05-12T12:19:44.783Z,5.45
2023-05-12T12:20:47.298Z,3.63
2023-05-12T12:21:49.529Z,3.55
2023-05-12T12:22:53.073Z,2.70
2023-05-12T12:23:55.270Z,2.83
2023-05-12T12:24:57.478Z,3.38
2023-05-12T12:25:59.675Z,3.45
2023-05-12T12:27:01.844Z,3.78
2023-05-12T12:28:04.223Z,3.95
2023-05-12T12:29:06.474Z,5.15
2023-05-12T12:30:09.549Z,3.20
2023-05-12T12:31:11.900Z,2.90
2023-05-12T12:32:14.083Z,5.63
2023-05-12T12:33:18.716Z,3.33
2023-05-12T12:34:22.525Z,5.22
2023-05-12T12:35:27.831Z,3.55
2023-05-12T12:36:30.909Z,4.30
2023-05-12T12:37:33.129Z,4.15
2023-05-12T12:38:35.286Z,3.67
2023-05-12T12:39:37.429Z,4.63
2023-05-12T12:40:39.994Z,3.83
2023-05-12T12:41:43.568Z,6.05
2023-05-12T12:42:46.062Z,3.13
2023-05-12T12:43:48.470Z,3.70
2023-05-12T12:44:51.519Z,4.03
2023-05-12T12:45:54.677Z,3.95
2023-05-12T12:46:56.966Z,6.70
2023-05-12T12:47:59.326Z,4.78
2023-05-12T12:49:01.627Z,5.97
2023-05-12T12:50:04.072Z,4.35
2023-05-12T12:51:07.280Z,5.78
2023-05-12T12:52:09.450Z,4.38
2023-05-12T12:53:11.754Z,4.35
2023-05-12T12:54:15.499Z,6.47
2023-05-12T12:55:18.095Z,6.00
2023-05-12T12:56:22.741Z,4.55
2023-05-12T12:57:26.151Z,4.88
2023-05-12T12:58:29.181Z,5.28
2023-05-12T12:59:31.627Z,3.72
2023-05-12T13:00:34.104Z,5.65
2023-05-12T13:01:36.728Z,5.05
2023-05-12T13:02:39.372Z,7.03
2023-05-12T13:03:41.907Z,5.13
2023-05-12T13:04:44.184Z,10.68
2023-05-12T13:05:46.440Z,5.15
2023-05-12T13:06:48.920Z,4.80
2023-05-12T13:07:51.755Z,8.15
2023-05-12T13:08:54.058Z,6.65
2023-05-12T13:09:56.458Z,6.07
2023-05-12T13:10:58.881Z,6.38
2023-05-12T13:12:01.208Z,10.90
2023-05-12T13:13:03.615Z,8.68
2023-05-12T13:14:05.913Z,8.63
2023-05-12T13:15:08.689Z,7.10
2023-05-12T13:16:10.966Z,7.18
2023-05-12T13:17:13.448Z,7.90
2023-05-12T13:18:15.907Z,8.98
2023-05-12T13:19:18.257Z,8.50
2023-05-12T13:20:20.773Z,6.82
2023-05-12T13:21:23.562Z,6.38
2023-05-12T13:22:27.504Z,9.80
2023-05-12T13:23:29.827Z,9.32
2023-05-12T13:24:32.103Z,7.10
2023-05-12T13:25:37.517Z,6.35
2023-05-12T13:26:39.795Z,7.53
2023-05-12T13:27:42.017Z,8.88
2023-05-12T13:28:44.671Z,10.18
2023-05-12T13:29:50.018Z,8.50
2023-05-12T13:30:52.679Z,7.90
2023-05-12T13:31:55.001Z,7.85
2023-05-12T13:32:57.266Z,8.10
2023-05-12T13:33:59.787Z,6.10
2023-05-12T13:35:02.292Z,8.98
2023-05-12T13:36:05.142Z,7.72
2023-05-12T13:37:07.551Z,7.15
2023-05-12T13:38:10.831Z,6.82
2023-05-12T13:39:13.337Z,5.72
2023-05-12T13:40:15.599Z,8.23
2023-05-12T13:41:18.002Z,9.55
2023-05-12T13:42:22.346Z,9.20
2023-05-12T13:43:24.633Z,7.00
2023-05-12T13:44:27.537Z,9.63
2023-05-12T13:45:29.816Z,6.72
2023-05-12T13:46:32.077Z,8.73
2023-05-12T13:47:35.024Z,9.80
2023-05-12T13:48:37.486Z,7.70
2023-05-12T13:49:39.934Z,6.47
2023-05-12T13:50:42.389Z,7.10
2023-05-12T13:51:44.733Z,5.95
2023-05-12T13:52:50.068Z,6.10
2023-05-12T13:53:52.644Z,6.85
2023-05-12T13:54:55.255Z,6.45
2023-05-12T13:55:57.764Z,6.90
2023-05-12T13:57:00.802Z,6.68
2023-05-12T13:58:03.052Z,6.57
2023-05-12T13:59:05.308Z,5.82